Terminal Aerodrome Forecast
Issued by NWS

Home | Current Version | Previous Version | Text Only | Print | Product List | Glossary On
Versions: 1 2 3 4 5 6 7 8 9 10 11 12 13 14 15 16
000
FTUS43 KMPX 271133
TAFAXN
TAF
KAXN 271133Z 2712/2812 VRB03KT P6SM SCT250
     FM271800 31007KT P6SM SCT150
     FM280000 VRB03KT P6SM SCT060 BKN120
     FM281000 35006KT P6SM VCSH OVC060=

USA.gov is the U.S. government's official web portal to all federal, state and local government web resources and services.